sensor_id;sensor_type;location;lat;lon;timestamp;temperature;humidity
62464;SHT31;48512;48.552;9.380;2023-06-19T00:00:37;23.19;54.64
62464;SHT31;48512;48.552;9.380;2023-06-19T00:03:08;23.14;54.87
62464;SHT31;48512;48.552;9.380;2023-06-19T00:05:34;23.05;55.19
62464;SHT31;48512;48.552;9.380;2023-06-19T00:08:01;23.05;55.43
62464;SHT31;48512;48.552;9.380;2023-06-19T00:10:29;22.92;56.23
62464;SHT31;48512;48.552;9.380;2023-06-19T00:12:55;22.78;56.62
62464;SHT31;48512;48.552;9.380;2023-06-19T00:15:21;22.78;56.84
62464;SHT31;48512;48.552;9.380;2023-06-19T00:17:47;22.80;56.89
62464;SHT31;48512;48.552;9.380;2023-06-19T00:20:13;22.63;57.47
62464;SHT31;48512;48.552;9.380;2023-06-19T00:22:40;22.54;57.82
62464;SHT31;48512;48.552;9.380;2023-06-19T00:25:07;22.56;57.45
62464;SHT31;48512;48.552;9.380;2023-06-19T00:27:33;22.53;57.79
62464;SHT31;48512;48.552;9.380;2023-06-19T00:30:00;22.53;57.52
62464;SHT31;48512;48.552;9.380;2023-06-19T00:32:30;22.47;57.70
62464;SHT31;48512;48.552;9.380;2023-06-19T00:34:56;22.42;60.30
62464;SHT31;48512;48.552;9.380;2023-06-19T00:37:25;22.43;65.11
62464;SHT31;48512;48.552;9.380;2023-06-19T00:39:51;22.26;66.71
62464;SHT31;48512;48.552;9.380;2023-06-19T00:42:17;22.10;68.10
62464;SHT31;48512;48.552;9.380;2023-06-19T00:44:44;21.98;68.54
62464;SHT31;48512;48.552;9.380;2023-06-19T00:47:10;21.74;68.31
62464;SHT31;48512;48.552;9.380;2023-06-19T00:49:37;21.44;70.01
62464;SHT31;48512;48.552;9.380;2023-06-19T00:52:03;21.33;71.60
62464;SHT31;48512;48.552;9.380;2023-06-19T00:54:30;21.33;72.78
62464;SHT31;48512;48.552;9.380;2023-06-19T00:56:56;21.51;72.18
62464;SHT31;48512;48.552;9.380;2023-06-19T00:59:23;21.64;71.09
62464;SHT31;48512;48.552;9.380;2023-06-19T01:01:50;21.44;71.27
62464;SHT31;48512;48.552;9.380;2023-06-19T01:04:16;21.29;72.11
62464;SHT31;48512;48.552;9.380;2023-06-19T01:06:53;21.30;72.62
62464;SHT31;48512;48.552;9.380;2023-06-19T01:09:28;20.99;73.09
62464;SHT31;48512;48.552;9.380;2023-06-19T01:12:24;20.91;73.03
62464;SHT31;48512;48.552;9.380;2023-06-19T01:15:04;20.95;73.16
62464;SHT31;48512;48.552;9.380;2023-06-19T01:17:32;20.89;73.34
62464;SHT31;48512;48.552;9.380;2023-06-19T01:19:59;20.79;73.13
62464;SHT31;48512;48.552;9.380;2023-06-19T01:22:32;20.92;72.92
62464;SHT31;48512;48.552;9.380;2023-06-19T01:24:58;20.88;72.41
62464;SHT31;48512;48.552;9.380;2023-06-19T01:27:25;20.92;72.16
62464;SHT31;48512;48.552;9.380;2023-06-19T01:29:56;21.03;70.74
62464;SHT31;48512;48.552;9.380;2023-06-19T01:32:44;20.81;70.84
62464;SHT31;48512;48.552;9.380;2023-06-19T01:35:15;20.71;71.22
62464;SHT31;48512;48.552;9.380;2023-06-19T01:37:43;20.67;70.90
62464;SHT31;48512;48.552;9.380;2023-06-19T01:40:11;20.63;71.07
62464;SHT31;48512;48.552;9.380;2023-06-19T01:42:39;20.74;70.84
62464;SHT31;48512;48.552;9.380;2023-06-19T01:45:08;20.92;70.29
62464;SHT31;48512;48.552;9.380;2023-06-19T01:47:35;20.98;67.90
62464;SHT31;48512;48.552;9.380;2023-06-19T01:50:03;21.60;61.06
62464;SHT31;48512;48.552;9.380;2023-06-19T01:52:30;21.87;60.28
62464;SHT31;48512;48.552;9.380;2023-06-19T01:54:56;22.15;59.08
62464;SHT31;48512;48.552;9.380;2023-06-19T01:57:22;22.47;58.12
62464;SHT31;48512;48.552;9.380;2023-06-19T01:59:48;22.43;58.68
62464;SHT31;48512;48.552;9.380;2023-06-19T02:02:14;22.46;58.51
62464;SHT31;48512;48.552;9.380;2023-06-19T02:04:40;22.37;59.07
62464;SHT31;48512;48.552;9.380;2023-06-19T02:07:07;22.30;59.46
62464;SHT31;48512;48.552;9.380;2023-06-19T02:09:33;22.35;59.69
62464;SHT31;48512;48.552;9.380;2023-06-19T02:11:59;22.30;59.76
62464;SHT31;48512;48.552;9.380;2023-06-19T02:14:26;22.36;59.71
62464;SHT31;48512;48.552;9.380;2023-06-19T02:16:52;22.16;60.44
62464;SHT31;48512;48.552;9.380;2023-06-19T02:19:18;22.05;60.99
62464;SHT31;48512;48.552;9.380;2023-06-19T02:21:45;22.05;61.41
62464;SHT31;48512;48.552;9.380;2023-06-19T02:24:11;22.04;60.76
62464;SHT31;48512;48.552;9.380;2023-06-19T02:26:38;21.94;61.13
62464;SHT31;48512;48.552;9.380;2023-06-19T02:29:04;21.99;60.91
62464;SHT31;48512;48.552;9.380;2023-06-19T02:31:30;21.98;60.95
62464;SHT31;48512;48.552;9.380;2023-06-19T02:33:57;22.09;61.25
62464;SHT31;48512;48.552;9.380;2023-06-19T02:36:23;21.85;61.87
62464;SHT31;48512;48.552;9.380;2023-06-19T02:38:49;21.99;61.62
62464;SHT31;48512;48.552;9.380;2023-06-19T02:41:16;21.85;62.20
62464;SHT31;48512;48.552;9.380;2023-06-19T02:43:42;21.97;61.83
62464;SHT31;48512;48.552;9.380;2023-06-19T02:46:09;21.97;61.91
62464;SHT31;48512;48.552;9.380;2023-06-19T02:48:35;21.84;62.38
62464;SHT31;48512;48.552;9.380;2023-06-19T02:51:02;21.68;63.01
62464;SHT31;48512;48.552;9.380;2023-06-19T02:53:28;21.68;63.11
62464;SHT31;48512;48.552;9.380;2023-06-19T02:55:54;21.75;62.96
62464;SHT31;48512;48.552;9.380;2023-06-19T02:58:21;21.70;63.57
62464;SHT31;48512;48.552;9.380;2023-06-19T03:00:48;21.70;63.49
62464;SHT31;48512;48.552;9.380;2023-06-19T03:03:16;21.62;63.86
62464;SHT31;48512;48.552;9.380;2023-06-19T03:05:42;21.64;64.37
62464;SHT31;48512;48.552;9.380;2023-06-19T03:08:09;21.55;64.64
62464;SHT31;48512;48.552;9.380;2023-06-19T03:10:35;21.62;64.37
62464;SHT31;48512;48.552;9.380;2023-06-19T03:13:01;21.74;63.99
62464;SHT31;48512;48.552;9.380;2023-06-19T03:15:27;21.73;64.11
62464;SHT31;48512;48.552;9.380;2023-06-19T03:17:54;21.94;63.22
62464;SHT31;48512;48.552;9.380;2023-06-19T03:20:21;21.85;63.81
62464;SHT31;48512;48.552;9.380;2023-06-19T03:22:53;21.79;63.78
62464;SHT31;48512;48.552;9.380;2023-06-19T03:25:20;21.74;63.85
62464;SHT31;48512;48.552;9.380;2023-06-19T03:27:47;21.73;64.12
62464;SHT31;48512;48.552;9.380;2023-06-19T03:30:13;21.78;63.76
62464;SHT31;48512;48.552;9.380;2023-06-19T03:32:41;21.74;63.96
62464;SHT31;48512;48.552;9.380;2023-06-19T03:35:10;21.77;63.85
62464;SHT31;48512;48.552;9.380;2023-06-19T03:37:42;21.73;64.17
62464;SHT31;48512;48.552;9.380;2023-06-19T03:40:08;21.78;63.45
62464;SHT31;48512;48.552;9.380;2023-06-19T03:42:41;21.77;63.69
62464;SHT31;48512;48.552;9.380;2023-06-19T03:45:08;21.85;63.42
62464;SHT31;48512;48.552;9.380;2023-06-19T03:47:34;21.74;63.58
62464;SHT31;48512;48.552;9.380;2023-06-19T03:50:00;21.81;63.05
62464;SHT31;48512;48.552;9.380;2023-06-19T03:52:27;21.94;62.94
62464;SHT31;48512;48.552;9.380;2023-06-19T03:54:53;22.01;62.51
62464;SHT31;48512;48.552;9.380;2023-06-19T03:57:19;22.08;62.09
62464;SHT31;48512;48.552;9.380;2023-06-19T03:59:45;22.19;61.50
62464;SHT31;48512;48.552;9.380;2023-06-19T04:02:12;21.88;62.22
62464;SHT31;48512;48.552;9.380;2023-06-19T04:04:38;21.89;62.11
62464;SHT31;48512;48.552;9.380;2023-06-19T04:07:04;21.87;61.88
62464;SHT31;48512;48.552;9.380;2023-06-19T04:09:31;22.05;61.60
62464;SHT31;48512;48.552;9.380;2023-06-19T04:11:57;22.09;61.30
62464;SHT31;48512;48.552;9.380;2023-06-19T04:14:24;22.10;61.69
62464;SHT31;48512;48.552;9.380;2023-06-19T04:16:50;22.19;61.52
62464;SHT31;48512;48.552;9.380;2023-06-19T04:19:16;22.19;61.52
62464;SHT31;48512;48.552;9.380;2023-06-19T04:21:42;21.98;62.00
62464;SHT31;48512;48.552;9.380;2023-06-19T04:24:08;21.98;62.21
62464;SHT31;48512;48.552;9.380;2023-06-19T04:26:35;22.04;62.05
62464;SHT31;48512;48.552;9.380;2023-06-19T04:29:03;21.99;62.14
62464;SHT31;48512;48.552;9.380;2023-06-19T04:31:29;21.85;62.69
62464;SHT31;48512;48.552;9.380;2023-06-19T04:33:56;21.88;62.61
62464;SHT31;48512;48.552;9.380;2023-06-19T04:36:22;22.09;61.77
62464;SHT31;48512;48.552;9.380;2023-06-19T04:38:49;22.15;61.94
62464;SHT31;48512;48.552;9.380;2023-06-19T04:41:20;21.99;62.70
62464;SHT31;48512;48.552;9.380;2023-06-19T04:43:46;22.08;61.96
62464;SHT31;48512;48.552;9.380;2023-06-19T04:46:12;22.06;62.32
62464;SHT31;48512;48.552;9.380;2023-06-19T04:48:38;21.95;62.07
62464;SHT31;48512;48.552;9.380;2023-06-19T04:51:06;22.13;61.62
62464;SHT31;48512;48.552;9.380;2023-06-19T04:53:32;22.13;61.60
62464;SHT31;48512;48.552;9.380;2023-06-19T04:55:58;22.25;62.14
62464;SHT31;48512;48.552;9.380;2023-06-19T04:58:24;22.09;63.79
62464;SHT31;48512;48.552;9.380;2023-06-19T05:00:50;22.20;62.59
62464;SHT31;48512;48.552;9.380;2023-06-19T05:03:18;22.33;62.47
62464;SHT31;48512;48.552;9.380;2023-06-19T05:05:44;22.37;63.08
62464;SHT31;48512;48.552;9.380;2023-06-19T05:08:10;22.35;62.60
62464;SHT31;48512;48.552;9.380;2023-06-19T05:10:36;22.12;64.15
62464;SHT31;48512;48.552;9.380;2023-06-19T05:13:02;22.15;64.74
62464;SHT31;48512;48.552;9.380;2023-06-19T05:15:29;22.01;64.60
62464;SHT31;48512;48.552;9.380;2023-06-19T05:17:55;21.92;64.57
62464;SHT31;48512;48.552;9.380;2023-06-19T05:20:21;22.19;65.23
62464;SHT31;48512;48.552;9.380;2023-06-19T05:22:47;22.15;65.69
62464;SHT31;48512;48.552;9.380;2023-06-19T05:25:13;21.97;64.27
62464;SHT31;48512;48.552;9.380;2023-06-19T05:27:39;22.09;65.97
62464;SHT31;48512;48.552;9.380;2023-06-19T05:30:06;22.10;67.08
62464;SHT31;48512;48.552;9.380;2023-06-19T05:32:32;22.22;67.48
62464;SHT31;48512;48.552;9.380;2023-06-19T05:34:58;22.05;68.67
62464;SHT31;48512;48.552;9.380;2023-06-19T05:37:25;22.09;67.77
62464;SHT31;48512;48.552;9.380;2023-06-19T05:39:52;22.10;67.70
62464;SHT31;48512;48.552;9.380;2023-06-19T05:42:19;22.04;64.81
62464;SHT31;48512;48.552;9.380;2023-06-19T05:44:45;22.04;65.34
62464;SHT31;48512;48.552;9.380;2023-06-19T05:47:11;22.16;64.81
62464;SHT31;48512;48.552;9.380;2023-06-19T05:49:37;22.16;65.80
62464;SHT31;48512;48.552;9.380;2023-06-19T05:52:04;22.02;65.53
62464;SHT31;48512;48.552;9.380;2023-06-19T05:54:30;22.08;65.08
62464;SHT31;48512;48.552;9.380;2023-06-19T05:56:56;22.20;65.93
62464;SHT31;48512;48.552;9.380;2023-06-19T05:59:22;22.16;66.85
62464;SHT31;48512;48.552;9.380;2023-06-19T06:01:48;22.33;65.77
62464;SHT31;48512;48.552;9.380;2023-06-19T06:04:16;22.30;65.22
62464;SHT31;48512;48.552;9.380;2023-06-19T06:06:43;22.32;65.37
62464;SHT31;48512;48.552;9.380;2023-06-19T06:09:09;22.46;65.16
62464;SHT31;48512;48.552;9.380;2023-06-19T06:11:38;22.52;64.52
62464;SHT31;48512;48.552;9.380;2023-06-19T06:14:04;22.61;64.12
62464;SHT31;48512;48.552;9.380;2023-06-19T06:16:30;22.61;63.76
62464;SHT31;48512;48.552;9.380;2023-06-19T06:18:56;22.78;62.92
62464;SHT31;48512;48.552;9.380;2023-06-19T06:21:22;22.80;62.76
62464;SHT31;48512;48.552;9.380;2023-06-19T06:23:48;22.84;62.23
62464;SHT31;48512;48.552;9.380;2023-06-19T06:26:14;22.86;62.56
62464;SHT31;48512;48.552;9.380;2023-06-19T06:28:40;22.94;62.65
62464;SHT31;48512;48.552;9.380;2023-06-19T06:31:07;23.00;62.10
62464;SHT31;48512;48.552;9.380;2023-06-19T06:33:33;23.10;61.89
62464;SHT31;48512;48.552;9.380;2023-06-19T06:35:59;23.12;62.11
62464;SHT31;48512;48.552;9.380;2023-06-19T06:38:25;23.30;61.26
62464;SHT31;48512;48.552;9.380;2023-06-19T06:40:51;23.39;61.33
62464;SHT31;48512;48.552;9.380;2023-06-19T06:43:18;23.56;60.56
62464;SHT31;48512;48.552;9.380;2023-06-19T06:45:44;23.73;59.79
62464;SHT31;48512;48.552;9.380;2023-06-19T06:48:10;23.90;59.60
62464;SHT31;48512;48.552;9.380;2023-06-19T06:50:36;23.93;59.58
62464;SHT31;48512;48.552;9.380;2023-06-19T06:53:02;23.97;58.83
62464;SHT31;48512;48.552;9.380;2023-06-19T06:55:28;24.03;59.20
62464;SHT31;48512;48.552;9.380;2023-06-19T06:57:54;24.07;60.57
62464;SHT31;48512;48.552;9.380;2023-06-19T07:00:21;24.20;60.40
62464;SHT31;48512;48.552;9.380;2023-06-19T07:02:47;24.28;60.83
62464;SHT31;48512;48.552;9.380;2023-06-19T07:05:16;24.21;61.38
62464;SHT31;48512;48.552;9.380;2023-06-19T07:07:42;24.20;62.08
62464;SHT31;48512;48.552;9.380;2023-06-19T07:10:08;24.18;61.52
62464;SHT31;48512;48.552;9.380;2023-06-19T07:12:35;24.29;61.40
62464;SHT31;48512;48.552;9.380;2023-06-19T07:15:09;24.20;61.95
62464;SHT31;48512;48.552;9.380;2023-06-19T07:17:35;24.36;61.49
62464;SHT31;48512;48.552;9.380;2023-06-19T07:20:02;24.41;61.45
62464;SHT31;48512;48.552;9.380;2023-06-19T07:22:28;24.52;60.57
62464;SHT31;48512;48.552;9.380;2023-06-19T07:24:54;24.53;60.86
62464;SHT31;48512;48.552;9.380;2023-06-19T07:27:20;24.61;60.94
62464;SHT31;48512;48.552;9.380;2023-06-19T07:29:46;24.83;60.09
62464;SHT31;48512;48.552;9.380;2023-06-19T07:32:12;24.55;60.65
62464;SHT31;48512;48.552;9.380;2023-06-19T07:34:39;24.63;60.37
62464;SHT31;48512;48.552;9.380;2023-06-19T07:37:05;24.62;61.08
62464;SHT31;48512;48.552;9.380;2023-06-19T07:39:31;24.68;61.07
62464;SHT31;48512;48.552;9.380;2023-06-19T07:41:57;24.83;60.28
62464;SHT31;48512;48.552;9.380;2023-06-19T07:44:23;24.84;59.95
62464;SHT31;48512;48.552;9.380;2023-06-19T07:46:50;24.90;60.34
62464;SHT31;48512;48.552;9.380;2023-06-19T07:49:16;24.94;60.34
62464;SHT31;48512;48.552;9.380;2023-06-19T07:51:42;25.00;60.09
62464;SHT31;48512;48.552;9.380;2023-06-19T07:54:08;25.06;60.29
62464;SHT31;48512;48.552;9.380;2023-06-19T07:56:34;24.87;60.63
62464;SHT31;48512;48.552;9.380;2023-06-19T07:59:00;24.94;60.18
62464;SHT31;48512;48.552;9.380;2023-06-19T08:01:26;25.00;60.56
62464;SHT31;48512;48.552;9.380;2023-06-19T08:03:53;25.00;60.14
62464;SHT31;48512;48.552;9.380;2023-06-19T08:06:19;25.35;59.51
62464;SHT31;48512;48.552;9.380;2023-06-19T08:08:45;25.58;58.77
62464;SHT31;48512;48.552;9.380;2023-06-19T08:11:11;26.07;56.99
62464;SHT31;48512;48.552;9.380;2023-06-19T08:13:37;26.07;54.20
62464;SHT31;48512;48.552;9.380;2023-06-19T08:16:03;26.43;51.82
62464;SHT31;48512;48.552;9.380;2023-06-19T08:18:30;26.64;51.84
62464;SHT31;48512;48.552;9.380;2023-06-19T08:20:56;26.45;53.82
62464;SHT31;48512;48.552;9.380;2023-06-19T08:23:22;26.48;54.40
62464;SHT31;48512;48.552;9.380;2023-06-19T08:25:49;26.68;53.31
62464;SHT31;48512;48.552;9.380;2023-06-19T08:28:16;26.79;53.16
62464;SHT31;48512;48.552;9.380;2023-06-19T08:30:44;26.85;51.02
62464;SHT31;48512;48.552;9.380;2023-06-19T08:33:13;26.95;51.72
62464;SHT31;48512;48.552;9.380;2023-06-19T08:35:39;27.12;51.22
62464;SHT31;48512;48.552;9.380;2023-06-19T08:38:06;27.12;51.52
62464;SHT31;48512;48.552;9.380;2023-06-19T08:40:33;27.32;49.95
62464;SHT31;48512;48.552;9.380;2023-06-19T08:42:59;27.36;49.68
62464;SHT31;48512;48.552;9.380;2023-06-19T08:45:26;27.35;48.25
62464;SHT31;48512;48.552;9.380;2023-06-19T08:48:00;27.64;48.13
62464;SHT31;48512;48.552;9.380;2023-06-19T08:50:26;27.85;46.70
62464;SHT31;48512;48.552;9.380;2023-06-19T08:52:52;27.74;47.29
62464;SHT31;48512;48.552;9.380;2023-06-19T08:55:20;27.98;47.02
62464;SHT31;48512;48.552;9.380;2023-06-19T08:57:48;28.18;47.02
62464;SHT31;48512;48.552;9.380;2023-06-19T09:00:35;27.91;47.98
62464;SHT31;48512;48.552;9.380;2023-06-19T09:03:02;27.97;48.27
62464;SHT31;48512;48.552;9.380;2023-06-19T09:05:29;27.98;48.31
62464;SHT31;48512;48.552;9.380;2023-06-19T09:07:59;28.02;48.35
62464;SHT31;48512;48.552;9.380;2023-06-19T09:10:33;28.12;48.19
62464;SHT31;48512;48.552;9.380;2023-06-19T09:13:01;28.23;48.88
62464;SHT31;48512;48.552;9.380;2023-06-19T09:15:34;28.16;48.55
62464;SHT31;48512;48.552;9.380;2023-06-19T09:20:28;28.11;49.50
62464;SHT31;48512;48.552;9.380;2023-06-19T09:22:58;28.21;48.58
62464;SHT31;48512;48.552;9.380;2023-06-19T09:25:25;28.09;49.31
62464;SHT31;48512;48.552;9.380;2023-06-19T09:27:56;28.04;49.11
62464;SHT31;48512;48.552;9.380;2023-06-19T09:30:22;28.23;49.01
62464;SHT31;48512;48.552;9.380;2023-06-19T09:32:49;28.26;49.65
62464;SHT31;48512;48.552;9.380;2023-06-19T09:35:15;28.55;48.88
62464;SHT31;48512;48.552;9.380;2023-06-19T09:37:41;28.50;48.91
62464;SHT31;48512;48.552;9.380;2023-06-19T09:40:07;28.70;48.64
62464;SHT31;48512;48.552;9.380;2023-06-19T09:42:41;28.94;48.05
62464;SHT31;48512;48.552;9.380;2023-06-19T09:45:17;28.98;47.64
62464;SHT31;48512;48.552;9.380;2023-06-19T09:47:46;29.04;48.10
62464;SHT31;48512;48.552;9.380;2023-06-19T09:50:15;29.22;47.12
62464;SHT31;48512;48.552;9.380;2023-06-19T09:52:42;29.59;47.22
62464;SHT31;48512;48.552;9.380;2023-06-19T09:55:11;29.84;46.51
62464;SHT31;48512;48.552;9.380;2023-06-19T09:57:42;30.03;45.82
62464;SHT31;48512;48.552;9.380;2023-06-19T10:00:09;29.89;46.26
62464;SHT31;48512;48.552;9.380;2023-06-19T10:02:44;29.93;45.85
62464;SHT31;48512;48.552;9.380;2023-06-19T10:05:11;29.96;46.05
62464;SHT31;48512;48.552;9.380;2023-06-19T10:07:45;29.93;46.51
62464;SHT31;48512;48.552;9.380;2023-06-19T10:12:48;30.08;46.52
62464;SHT31;48512;48.552;9.380;2023-06-19T10:17:48;30.68;44.12
62464;SHT31;48512;48.552;9.380;2023-06-19T10:25:24;31.37;41.85
62464;SHT31;48512;48.552;9.380;2023-06-19T10:27:50;31.57;41.91
62464;SHT31;48512;48.552;9.380;2023-06-19T10:30:19;31.78;42.02
62464;SHT31;48512;48.552;9.380;2023-06-19T10:32:46;32.04;41.36
62464;SHT31;48512;48.552;9.380;2023-06-19T10:35:13;32.27;40.21
62464;SHT31;48512;48.552;9.380;2023-06-19T10:37:40;32.52;39.54
62464;SHT31;48512;48.552;9.380;2023-06-19T10:40:07;32.52;38.53
62464;SHT31;48512;48.552;9.380;2023-06-19T10:42:39;32.22;39.53
62464;SHT31;48512;48.552;9.380;2023-06-19T10:45:08;32.40;38.48
62464;SHT31;48512;48.552;9.380;2023-06-19T10:47:35;32.56;39.17
62464;SHT31;48512;48.552;9.380;2023-06-19T10:50:03;32.87;38.26
62464;SHT31;48512;48.552;9.380;2023-06-19T10:52:30;32.92;37.87
62464;SHT31;48512;48.552;9.380;2023-06-19T10:54:56;32.85;38.09
62464;SHT31;48512;48.552;9.380;2023-06-19T10:57:30;33.18;38.23
62464;SHT31;48512;48.552;9.380;2023-06-19T10:59:57;33.28;37.94
62464;SHT31;48512;48.552;9.380;2023-06-19T11:02:25;33.78;37.51
62464;SHT31;48512;48.552;9.380;2023-06-19T11:04:54;34.12;37.21
62464;SHT31;48512;48.552;9.380;2023-06-19T11:07:24;34.39;36.68
62464;SHT31;48512;48.552;9.380;2023-06-19T11:09:50;34.83;36.22
62464;SHT31;48512;48.552;9.380;2023-06-19T11:12:20;34.24;37.31
62464;SHT31;48512;48.552;9.380;2023-06-19T11:14:48;33.76;37.10
62464;SHT31;48512;48.552;9.380;2023-06-19T11:17:16;33.43;37.81
62464;SHT31;48512;48.552;9.380;2023-06-19T11:19:44;33.59;37.27
62464;SHT31;48512;48.552;9.380;2023-06-19T11:22:10;34.03;37.57
62464;SHT31;48512;48.552;9.380;2023-06-19T11:24:42;34.18;37.22
62464;SHT31;48512;48.552;9.380;2023-06-19T11:27:16;34.34;36.44
62464;SHT31;48512;48.552;9.380;2023-06-19T11:29:43;34.22;36.92
62464;SHT31;48512;48.552;9.380;2023-06-19T11:32:13;34.75;36.33
62464;SHT31;48512;48.552;9.380;2023-06-19T11:34:40;34.89;35.72
62464;SHT31;48512;48.552;9.380;2023-06-19T11:37:16;34.79;35.79
62464;SHT31;48512;48.552;9.380;2023-06-19T11:39:49;34.48;36.10
62464;SHT31;48512;48.552;9.380;2023-06-19T11:42:18;34.80;36.09
62464;SHT31;48512;48.552;9.380;2023-06-19T11:45:00;34.96;35.38
62464;SHT31;48512;48.552;9.380;2023-06-19T11:47:33;35.04;35.08
62464;SHT31;48512;48.552;9.380;2023-06-19T11:49:59;35.06;35.17
62464;SHT31;48512;48.552;9.380;2023-06-19T11:52:29;35.34;35.05
62464;SHT31;48512;48.552;9.380;2023-06-19T11:54:56;35.58;34.66
62464;SHT31;48512;48.552;9.380;2023-06-19T11:57:23;35.27;35.33
62464;SHT31;48512;48.552;9.380;2023-06-19T11:59:49;35.31;34.84
62464;SHT31;48512;48.552;9.380;2023-06-19T12:02:15;34.72;35.35
62464;SHT31;48512;48.552;9.380;2023-06-19T12:04:41;34.27;35.67
62464;SHT31;48512;48.552;9.380;2023-06-19T12:07:07;34.37;36.19
62464;SHT31;48512;48.552;9.380;2023-06-19T12:09:33;34.28;36.40
62464;SHT31;48512;48.552;9.380;2023-06-19T12:12:01;35.00;35.01
62464;SHT31;48512;48.552;9.380;2023-06-19T12:14:28;34.78;35.11
62464;SHT31;48512;48.552;9.380;2023-06-19T12:16:54;34.76;35.49
62464;SHT31;48512;48.552;9.380;2023-06-19T12:19:20;35.02;34.81
62464;SHT31;48512;48.552;9.380;2023-06-19T12:21:46;35.96;34.05
62464;SHT31;48512;48.552;9.380;2023-06-19T12:24:13;35.89;34.03
62464;SHT31;48512;48.552;9.380;2023-06-19T12:26:39;36.39;33.79
62464;SHT31;48512;48.552;9.380;2023-06-19T12:29:06;36.57;33.67
62464;SHT31;48512;48.552;9.380;2023-06-19T12:31:34;36.36;34.05
62464;SHT31;48512;48.552;9.380;2023-06-19T12:34:00;36.60;32.79
62464;SHT31;48512;48.552;9.380;2023-06-19T12:36:29;36.95;32.71
62464;SHT31;48512;48.552;9.380;2023-06-19T12:38:59;36.95;32.53
62464;SHT31;48512;48.552;9.380;2023-06-19T12:41:25;37.33;31.67
62464;SHT31;48512;48.552;9.380;2023-06-19T12:43:52;37.42;31.01
62464;SHT31;48512;48.552;9.380;2023-06-19T12:46:18;37.67;30.20
62464;SHT31;48512;48.552;9.380;2023-06-19T12:48:44;37.59;31.21
62464;SHT31;48512;48.552;9.380;2023-06-19T12:51:17;37.65;30.32
62464;SHT31;48512;48.552;9.380;2023-06-19T12:53:44;37.40;31.48
62464;SHT31;48512;48.552;9.380;2023-06-19T12:56:10;37.84;30.75
62464;SHT31;48512;48.552;9.380;2023-06-19T12:58:36;37.59;30.91
62464;SHT31;48512;48.552;9.380;2023-06-19T13:01:02;38.07;30.46
62464;SHT31;48512;48.552;9.380;2023-06-19T13:03:28;38.24;29.88
62464;SHT31;48512;48.552;9.380;2023-06-19T13:05:54;38.08;30.08
62464;SHT31;48512;48.552;9.380;2023-06-19T13:08:20;37.94;30.42
62464;SHT31;48512;48.552;9.380;2023-06-19T13:10:47;37.90;30.40
62464;SHT31;48512;48.552;9.380;2023-06-19T13:13:13;38.08;30.50
62464;SHT31;48512;48.552;9.380;2023-06-19T13:15:39;38.21;30.31
62464;SHT31;48512;48.552;9.380;2023-06-19T13:18:05;38.34;29.93
62464;SHT31;48512;48.552;9.380;2023-06-19T13:20:32;38.27;29.76
62464;SHT31;48512;48.552;9.380;2023-06-19T13:22:58;38.69;29.36
62464;SHT31;48512;48.552;9.380;2023-06-19T13:25:24;38.69;29.41
62464;SHT31;48512;48.552;9.380;2023-06-19T13:27:50;38.03;29.85
62464;SHT31;48512;48.552;9.380;2023-06-19T13:30:16;38.24;29.82
62464;SHT31;48512;48.552;9.380;2023-06-19T13:32:42;37.35;31.03
62464;SHT31;48512;48.552;9.380;2023-06-19T13:35:09;37.59;30.90
62464;SHT31;48512;48.552;9.380;2023-06-19T13:37:37;38.11;30.86
62464;SHT31;48512;48.552;9.380;2023-06-19T13:40:07;38.92;29.70
62464;SHT31;48512;48.552;9.380;2023-06-19T13:42:33;39.02;29.42
62464;SHT31;48512;48.552;9.380;2023-06-19T13:45:02;39.37;29.07
62464;SHT31;48512;48.552;9.380;2023-06-19T13:47:28;39.45;28.82
62464;SHT31;48512;48.552;9.380;2023-06-19T13:49:54;39.43;28.89
62464;SHT31;48512;48.552;9.380;2023-06-19T13:52:21;39.07;29.68
62464;SHT31;48512;48.552;9.380;2023-06-19T13:54:47;39.40;29.34
62464;SHT31;48512;48.552;9.380;2023-06-19T13:57:13;39.41;29.01
62464;SHT31;48512;48.552;9.380;2023-06-19T13:59:39;38.93;29.27
62464;SHT31;48512;48.552;9.380;2023-06-19T14:02:05;38.86;29.27
62464;SHT31;48512;48.552;9.380;2023-06-19T14:04:31;38.72;29.56
62464;SHT31;48512;48.552;9.380;2023-06-19T14:06:59;38.87;29.57
62464;SHT31;48512;48.552;9.380;2023-06-19T14:09:27;39.02;29.57
62464;SHT31;48512;48.552;9.380;2023-06-19T14:11:53;38.65;29.77
62464;SHT31;48512;48.552;9.380;2023-06-19T14:14:19;38.72;30.13
62464;SHT31;48512;48.552;9.380;2023-06-19T14:16:45;38.35;30.18
62464;SHT31;48512;48.552;9.380;2023-06-19T14:19:11;38.04;30.71
62464;SHT31;48512;48.552;9.380;2023-06-19T14:21:38;37.49;31.50
62464;SHT31;48512;48.552;9.380;2023-06-19T14:24:04;37.36;31.40
62464;SHT31;48512;48.552;9.380;2023-06-19T14:26:30;37.90;31.03
62464;SHT31;48512;48.552;9.380;2023-06-19T14:28:56;37.96;31.11
62464;SHT31;48512;48.552;9.380;2023-06-19T14:31:24;38.31;30.80
62464;SHT31;48512;48.552;9.380;2023-06-19T14:33:50;38.21;30.85
62464;SHT31;48512;48.552;9.380;2023-06-19T14:36:17;38.51;30.44
62464;SHT31;48512;48.552;9.380;2023-06-19T14:38:43;38.86;29.27
62464;SHT31;48512;48.552;9.380;2023-06-19T14:41:09;38.72;29.84
62464;SHT31;48512;48.552;9.380;2023-06-19T14:43:35;38.63;29.72
62464;SHT31;48512;48.552;9.380;2023-06-19T14:46:02;38.41;29.92
62464;SHT31;48512;48.552;9.380;2023-06-19T14:48:30;38.21;30.24
62464;SHT31;48512;48.552;9.380;2023-06-19T14:50:56;38.39;30.06
62464;SHT31;48512;48.552;9.380;2023-06-19T14:53:23;39.03;29.15
62464;SHT31;48512;48.552;9.380;2023-06-19T14:55:49;37.94;30.46
62464;SHT31;48512;48.552;9.380;2023-06-19T14:58:16;38.13;30.39
62464;SHT31;48512;48.552;9.380;2023-06-19T15:00:42;38.23;30.58
62464;SHT31;48512;48.552;9.380;2023-06-19T15:03:08;37.83;30.73
62464;SHT31;48512;48.552;9.380;2023-06-19T15:05:34;37.57;31.28
62464;SHT31;48512;48.552;9.380;2023-06-19T15:08:00;37.70;31.34
62464;SHT31;48512;48.552;9.380;2023-06-19T15:10:27;37.28;31.35
62464;SHT31;48512;48.552;9.380;2023-06-19T15:12:54;37.02;31.94
62464;SHT31;48512;48.552;9.380;2023-06-19T15:15:20;36.85;32.40
62464;SHT31;48512;48.552;9.380;2023-06-19T15:17:46;36.74;32.01
62464;SHT31;48512;48.552;9.380;2023-06-19T15:20:12;36.33;32.78
62464;SHT31;48512;48.552;9.380;2023-06-19T15:22:39;36.37;33.00
62464;SHT31;48512;48.552;9.380;2023-06-19T15:25:06;36.36;32.92
62464;SHT31;48512;48.552;9.380;2023-06-19T15:27:32;36.37;32.62
62464;SHT31;48512;48.552;9.380;2023-06-19T15:29:59;36.20;33.09
62464;SHT31;48512;48.552;9.380;2023-06-19T15:32:25;35.96;33.30
62464;SHT31;48512;48.552;9.380;2023-06-19T15:34:52;35.65;33.72
62464;SHT31;48512;48.552;9.380;2023-06-19T15:37:18;35.37;34.15
62464;SHT31;48512;48.552;9.380;2023-06-19T15:39:45;35.26;34.32
62464;SHT31;48512;48.552;9.380;2023-06-19T15:42:11;34.97;34.51